Sargent, NE (68874)

5:20 AM CDT on September 30, 2014 (GMT -0500)
Sargent | Change Station
CLOSE
Current Station
Personal Weather Station
Location: Sargent, NE
Elevation: 2314 ft
Nearby Weather Stations

Elev 2314 ft 41.64 °N, 99.38 °W | Updated 13 minutes ago

Mostly Cloudy
Mostly Cloudy
65.6 °F
Feels Like 65.6 °F
N
2.0
Wind Variable Wind from South
Gusts 9.0 mph

Today
High -- | Low -- °F
--% Chance of Precip.
Yesterday
High -- | Low -- °F
Precip. -- in
7:33 AM 7:20 PM
Waxing Crescent, 35% visible
Pressure 29.68 in
Visibility 10.0 miles
Clouds Mostly Cloudy 4300 ft
Mostly Cloudy 6000 ft
Overcast 9000 ft
Dew Point 59 °F
Humidity 78%
Rainfall 0.00 in
Snow Depth Not available.
UV 0 out of 12
Pollen 5.00 out of 12
Air Quality Not available.
Flu Activity Not available.
METAR KBBW 300953Z AUTO 17020G27KT 10SM -RA BKN043 BKN060 OVC090 19/14 A2974 RMK AO2 PK WND 16027/0953 RAB36 SLP048 P0000 T01890139

More Conditions Fewer Conditions

Pressure 29.68 in
Visibility 10.0 miles
Clouds Mostly Cloudy 4300 ft
Mostly Cloudy 6000 ft
Overcast 9000 ft
Dew Point 59 °F
Humidity 78%
Rainfall 0.00 in
Snow Depth Not available.
UV 0 out of 12
Pollen 5.00 out of 12
Air Quality Not available.
Flu Activity Not available.
METAR KBBW 300953Z AUTO 17020G27KT 10SM -RA BKN043 BKN060 OVC090 19/14 A2974 RMK AO2 PK WND 16027/0953 RAB36 SLP048 P0000 T01890139

More Conditions Fewer Conditions

10-Day Weather Forecast

Almanac

Astronomy

Sep. 30, 2014 Rise Set
Actual Time 7:33 AM CDT 7:20 PM CDT
Civil Twilight 7:05 AM CDT 7:48 PM CDT
Nautical Twilight 6:33 AM CDT 8:20 PM CDT
Astronomical Twilight 6:00 AM CDT 8:53 PM CDT
Moon 1:46 PM CDT 11:49 PM CDT
Length of Visible Light 12h 42m
Length of Day
11h 47m
Tomorrow will be 2m 45s shorter.
Waxing Crescent, 35% of the Moon is Illuminated
Today
Waxing Crescent
Oct 1
First Quarter
Oct 8
Full
Oct 15
Last Quarter
Oct 23
New

Today's Extremes

State Highs State Lows

Community

WunderPhotos

Upload Photos

1,757,610 photos uploaded!

WunderBlogs® & News

Nearby

Snow Depth

Station Depth Elevation
No new snow has been reported.

Earthquake Activity

City Distance Mag. Time & Date
No recent earthquake activity has been reported nearby.
Minimum magnitude displayed is 2.5.

Coastal Water Temperatures

Place Temperature
No Stations Reporting

Nearby Weather Stations